Time;durP1;ratioP1;P1;durP2;ratioP2;P2;SDS_P1;SDS_P2;PMS_P1;PMS_P2;Temp;Humidity;BMP_temperature;BMP_pressure;BME280_temperature;BME280_humidity;BME280_pressure;Samples;Min_cycle;Max_cycle;Signal;HPM_P1;HPM_P2
2022/05/27 00:01:26;;;;;;;3.25;1.30;;;;;;;;;;4993401;28;20043;-56
2022/05/27 00:03:59;;;;;;;2.22;1.30;;;;;;;;;;4993526;28;20042;-62
2022/05/27 00:06:30;;;;;;;4.15;1.15;;;;;;;;;;4992889;28;20151;-56
2022/05/27 00:08:58;;;;;;;2.38;1.30;;;;;;;;;;4993476;28;20117;-59
2022/05/27 00:11:27;;;;;;;7.75;2.28;;;;;;;;;;5008545;28;20108;-60
2022/05/27 00:13:55;;;;;;;2.92;1.38;;;;;;;;;;4993101;28;20506;-53
2022/05/27 00:16:22;;;;;;;2.28;1.48;;;;;;;;;;4992995;28;20039;-55
2022/05/27 00:18:49;;;;;;;3.20;2.00;;;;;;;;;;4992737;28;20129;-58
2022/05/27 00:21:18;;;;;;;4.95;1.80;;;;;;;;;;4993275;28;20050;-52
2022/05/27 00:23:45;;;;;;;2.15;1.48;;;;;;;;;;4992943;28;20462;-52
2022/05/27 00:26:12;;;;;;;2.78;2.03;;;;;;;;;;4993075;28;20046;-59
2022/05/27 00:28:40;;;;;;;6.43;1.70;;;;;;;;;;4992902;28;20562;-53
2022/05/27 00:31:07;;;;;;;3.90;1.58;;;;;;;;;;4973942;28;20085;-52
2022/05/27 00:33:37;;;;;;;7.40;2.08;;;;;;;;;;4973641;28;20047;-48
2022/05/27 00:36:09;;;;;;;2.55;1.50;;;;;;;;;;4973339;28;20046;-51
2022/05/27 00:38:39;;;;;;;2.85;1.75;;;;;;;;;;4973253;28;20043;-51
2022/05/27 00:41:07;;;;;;;4.13;1.88;;;;;;;;;;4973187;28;20047;-65
2022/05/27 00:43:34;;;;;;;4.10;1.52;;;;;;;;;;4973183;28;20043;-51
2022/05/27 00:46:11;;;;;;;4.63;1.40;;;;;;;;;;4973302;28;20035;-51
2022/05/27 00:48:39;;;;;;;2.85;1.42;;;;;;;;;;4973169;28;20053;-52
2022/05/27 00:51:25;;;;;;;2.95;1.73;;;;;;;;;;4973348;28;20087;-47
2022/05/27 00:54:08;;;;;;;3.50;1.73;;;;;;;;;;4971961;28;20078;-51
2022/05/27 00:56:41;;;;;;;4.35;1.75;;;;;;;;;;4972848;28;20054;-57
2022/05/27 00:59:34;;;;;;;3.53;1.67;;;;;;;;;;4973120;28;20093;-47
2022/05/27 01:02:01;;;;;;;4.68;1.67;;;;;;;;;;4969002;28;20519;-47
2022/05/27 01:04:31;;;;;;;2.97;1.65;;;;;;;;;;4972833;28;20499;-50
2022/05/27 01:06:58;;;;;;;3.88;1.83;;;;;;;;;;4973040;28;20438;-51
2022/05/27 01:09:29;;;;;;;2.55;1.52;;;;;;;;;;4972878;28;20070;-51
2022/05/27 01:12:19;;;;;;;4.45;1.42;;;;;;;;;;4972874;28;20495;-54
2022/05/27 01:14:53;;;;;;;3.85;1.70;;;;;;;;;;4972533;28;20065;-54
2022/05/27 01:17:31;;;;;;;3.55;1.73;;;;;;;;;;4971862;28;20574;-52
2022/05/27 01:20:22;;;;;;;3.25;1.67;;;;;;;;;;4972646;28;20046;-58
2022/05/27 01:23:11;;;;;;;2.65;1.65;;;;;;;;;;4972678;28;20038;-52
2022/05/27 01:26:07;;;;;;;3.75;2.40;;;;;;;;;;4972685;28;20043;-56
2022/05/27 01:28:53;;;;;;;2.15;1.60;;;;;;;;;;4972454;28;20047;-58
2022/05/27 01:31:29;;;;;;;6.40;2.47;;;;;;;;;;4991911;28;20050;-54
2022/05/27 01:34:05;;;;;;;7.45;1.88;;;;;;;;;;4992089;28;20411;-61
2022/05/27 01:37:01;;;;;;;2.90;1.38;;;;;;;;;;4991706;28;20517;-61
2022/05/27 01:39:40;;;;;;;3.15;1.60;;;;;;;;;;4991699;28;20049;-61
2022/05/27 01:42:23;;;;;;;2.70;1.40;;;;;;;;;;5007080;28;20599;-53
2022/05/27 01:44:59;;;;;;;3.55;1.52;;;;;;;;;;4991734;28;20046;-54
2022/05/27 01:48:03;;;;;;;2.28;1.27;;;;;;;;;;4991930;28;20042;-61
2022/05/27 01:50:54;;;;;;;2.13;1.35;;;;;;;;;;4991831;28;20050;-58
2022/05/27 01:53:28;;;;;;;2.55;1.42;;;;;;;;;;4991770;28;20042;-58
2022/05/27 01:56:37;;;;;;;2.35;1.50;;;;;;;;;;4991861;28;20039;-58
2022/05/27 01:59:11;;;;;;;3.30;1.52;;;;;;;;;;4988859;28;20054;-50
2022/05/27 02:01:45;;;;;;;2.40;1.58;;;;;;;;;;4991519;28;20062;-49
2022/05/27 02:04:22;;;;;;;2.13;1.33;;;;;;;;;;4991840;28;20034;-48
2022/05/27 02:07:13;;;;;;;2.13;1.55;;;;;;;;;;4991679;28;20049;-53
2022/05/27 02:09:45;;;;;;;3.55;1.40;;;;;;;;;;4991954;28;20049;-51
2022/05/27 02:12:22;;;;;;;3.22;1.30;;;;;;;;;;4991569;28;20199;-49
2022/05/27 02:14:54;;;;;;;2.20;1.63;;;;;;;;;;4991161;28;20465;-51
2022/05/27 02:17:28;;;;;;;3.00;1.30;;;;;;;;;;4991501;28;20058;-49
2022/05/27 02:20:04;;;;;;;3.13;1.50;;;;;;;;;;4991464;28;20069;-48
2022/05/27 02:22:36;;;;;;;2.53;1.70;;;;;;;;;;4991520;28;20068;-55
2022/05/27 02:25:28;;;;;;;2.85;1.40;;;;;;;;;;4991493;28;20049;-53
2022/05/27 02:27:58;;;;;;;2.22;1.38;;;;;;;;;;4991444;28;20093;-48
2022/05/27 02:30:30;;;;;;;2.42;1.55;;;;;;;;;;4994962;28;20522;-50
2022/05/27 02:36:20;;;;;;;3.63;1.35;;;;;;;;;;4995460;28;20042;-52
2022/05/27 02:38:48;;;;;;;2.90;1.30;;;;;;;;;;4993947;28;20061;-54
2022/05/27 02:41:25;;;;;;;1.90;1.65;;;;;;;;;;4995062;28;20046;-49
2022/05/27 02:44:22;;;;;;;6.45;1.90;;;;;;;;;;4994928;28;20054;-53
2022/05/27 02:47:04;;;;;;;4.40;1.52;;;;;;;;;;4970435;28;20066;-47
2022/05/27 02:49:50;;;;;;;9.48;4.55;;;;;;;;;;4994792;28;20061;-56
2022/05/27 02:52:40;;;;;;;11.82;4.95;;;;;;;;;;4994889;28;20578;-61
2022/05/27 02:55:20;;;;;;;9.98;4.35;;;;;;;;;;4994772;28;20034;-50
2022/05/27 02:57:53;;;;;;;6.70;3.15;;;;;;;;;;4993694;28;20085;-66
2022/05/27 03:00:24;;;;;;;5.70;2.28;;;;;;;;;;4994559;28;20048;-55
2022/05/27 03:02:53;;;;;;;2.70;1.77;;;;;;;;;;4993494;28;20513;-59
2022/05/27 03:05:24;;;;;;;3.88;1.88;;;;;;;;;;4994770;28;20039;-52
2022/05/27 03:08:16;;;;;;;86.40;34.53;;;;;;;;;;4994933;28;20049;-54
2022/05/27 03:11:06;;;;;;;12.73;5.72;;;;;;;;;;4994446;28;20042;-50
2022/05/27 03:13:42;;;;;;;3.53;2.13;;;;;;;;;;4989254;28;20108;-51
2022/05/27 03:16:48;;;;;;;3.58;1.85;;;;;;;;;;4994190;28;20051;-50
2022/05/27 03:19:44;;;;;;;2.60;1.70;;;;;;;;;;4985753;28;20534;-50
2022/05/27 03:22:30;;;;;;;2.42;1.50;;;;;;;;;;4994333;28;20042;-51
2022/05/27 03:25:21;;;;;;;2.10;1.50;;;;;;;;;;4994388;28;20092;-52
2022/05/27 03:28:10;;;;;;;2.03;1.30;;;;;;;;;;4975031;28;20043;-66
2022/05/27 03:30:47;;;;;;;2.58;1.50;;;;;;;;;;4989389;28;20097;-56
2022/05/27 03:33:39;;;;;;;6.00;1.40;;;;;;;;;;4994046;28;20414;-51
2022/05/27 03:36:06;;;;;;;3.30;1.58;;;;;;;;;;4993847;28;20074;-48
2022/05/27 03:38:42;;;;;;;2.97;1.55;;;;;;;;;;4993919;28;20101;-49
2022/05/27 03:41:15;;;;;;;7.30;2.67;;;;;;;;;;4993104;28;20081;-53
2022/05/27 03:43:45;;;;;;;6.28;1.30;;;;;;;;;;4993820;28;20034;-52
2022/05/27 03:46:12;;;;;;;3.00;1.75;;;;;;;;;;4993869;28;20038;-49
2022/05/27 03:48:39;;;;;;;2.33;1.42;;;;;;;;;;4993392;28;20482;-52
2022/05/27 03:51:18;;;;;;;3.40;1.45;;;;;;;;;;4993929;28;20121;-56
2022/05/27 03:54:04;;;;;;;3.17;1.63;;;;;;;;;;4993588;28;20061;-49
2022/05/27 03:56:39;;;;;;;2.28;1.30;;;;;;;;;;4993632;28;20047;-54
2022/05/27 03:59:09;;;;;;;2.85;1.48;;;;;;;;;;4993448;28;20494;-51
2022/05/27 04:01:38;;;;;;;2.28;1.40;;;;;;;;;;4993426;28;20490;-50
2022/05/27 04:04:11;;;;;;;2.45;1.48;;;;;;;;;;5008326;28;20472;-51
2022/05/27 04:06:38;;;;;;;2.45;1.55;;;;;;;;;;4993452;28;20502;-57
2022/05/27 04:09:06;;;;;;;33.08;16.25;;;;;;;;;;4993388;28;20057;-52
2022/05/27 04:11:36;;;;;;;11.77;5.60;;;;;;;;;;4993490;28;20046;-49
2022/05/27 04:14:03;;;;;;;5.78;2.22;;;;;;;;;;4993381;28;20428;-49
2022/05/27 04:16:31;;;;;;;6.07;1.90;;;;;;;;;;4993102;28;20129;-51
2022/05/27 04:18:58;;;;;;;6.55;1.83;;;;;;;;;;4992864;28;20046;-51
2022/05/27 04:21:26;;;;;;;3.28;1.98;;;;;;;;;;4993290;28;20399;-54
2022/05/27 04:23:54;;;;;;;2.42;1.70;;;;;;;;;;4993532;28;20048;-56
2022/05/27 04:26:23;;;;;;;6.80;1.65;;;;;;;;;;4993193;28;20046;-54
2022/05/27 04:28:51;;;;;;;5.68;2.15;;;;;;;;;;4992994;28;20277;-63
2022/05/27 04:31:20;;;;;;;10.88;3.85;;;;;;;;;;4992943;28;20042;-55
2022/05/27 04:33:48;;;;;;;5.72;2.97;;;;;;;;;;4993050;28;20046;-61
2022/05/27 04:36:15;;;;;;;5.25;2.40;;;;;;;;;;4992981;28;20046;-52
2022/05/27 04:38:43;;;;;;;2.30;1.50;;;;;;;;;;4992624;28;20046;-56
2022/05/27 04:41:10;;;;;;;2.63;1.40;;;;;;;;;;4992680;28;20054;-49
2022/05/27 04:43:38;;;;;;;2.55;1.30;;;;;;;;;;4992813;28;20042;-51
2022/05/27 04:46:05;;;;;;;5.43;1.30;;;;;;;;;;4992635;28;20038;-50
2022/05/27 04:48:32;;;;;;;5.60;1.70;;;;;;;;;;4992672;28;20450;-51
2022/05/27 04:51:00;;;;;;;3.75;1.60;;;;;;;;;;4992781;28;20042;-49
2022/05/27 04:53:27;;;;;;;2.78;1.60;;;;;;;;;;4992508;28;20102;-51
2022/05/27 04:55:54;;;;;;;3.58;1.58;;;;;;;;;;4993028;28;20509;-53
2022/05/27 04:58:22;;;;;;;5.38;1.60;;;;;;;;;;4992543;28;20069;-53
2022/05/27 05:00:49;;;;;;;3.97;1.30;;;;;;;;;;4992526;28;20422;-58
2022/05/27 05:03:17;;;;;;;3.60;1.50;;;;;;;;;;4991258;28;20126;-52
2022/05/27 05:05:44;;;;;;;22.35;10.65;;;;;;;;;;4992408;28;20054;-49
2022/05/27 05:08:34;;;;;;;16.27;7.93;;;;;;;;;;4992354;28;20045;-52
2022/05/27 05:11:03;;;;;;;3.88;2.03;;;;;;;;;;4992235;28;20453;-51
2022/05/27 05:13:31;;;;;;;6.00;1.90;;;;;;;;;;4992184;28;20513;-52
2022/05/27 05:15:59;;;;;;;2.85;1.50;;;;;;;;;;4992321;28;20039;-64
2022/05/27 05:18:27;;;;;;;2.33;1.40;;;;;;;;;;4992045;28;20047;-52
2022/05/27 05:20:56;;;;;;;4.88;1.40;;;;;;;;;;4992043;28;20088;-54
2022/05/27 05:23:23;;;;;;;1.75;1.20;;;;;;;;;;4992396;28;20038;-52
2022/05/27 05:25:51;;;;;;;4.32;1.30;;;;;;;;;;4992432;28;20047;-51
2022/05/27 05:28:18;;;;;;;2.15;1.30;;;;;;;;;;4991778;28;20101;-49
2022/05/27 05:30:46;;;;;;;3.15;1.30;;;;;;;;;;4991732;28;20053;-48
2022/05/27 05:33:14;;;;;;;2.85;1.20;;;;;;;;;;4991939;28;20038;-58
2022/05/27 05:35:42;;;;;;;47.53;24.52;;;;;;;;;;4991926;28;20053;-50
2022/05/27 05:38:09;;;;;;;6.38;2.75;;;;;;;;;;4991819;28;20134;-49
2022/05/27 05:40:38;;;;;;;2.95;1.48;;;;;;;;;;4991686;28;20515;-52
2022/05/27 05:43:05;;;;;;;3.58;1.30;;;;;;;;;;4991868;28;20104;-52
2022/05/27 05:45:33;;;;;;;4.10;1.50;;;;;;;;;;4991872;28;20077;-52
2022/05/27 05:48:00;;;;;;;3.83;1.50;;;;;;;;;;4991955;28;20049;-50
2022/05/27 05:50:30;;;;;;;2.42;1.38;;;;;;;;;;4991056;28;20050;-53
2022/05/27 05:52:57;;;;;;;1.83;1.10;;;;;;;;;;4991030;28;20104;-54
2022/05/27 05:55:26;;;;;;;3.53;1.13;;;;;;;;;;4990926;28;20097;-50
2022/05/27 05:57:53;;;;;;;4.07;1.27;;;;;;;;;;4991982;28;20179;-55
2022/05/27 06:00:24;;;;;;;3.55;1.50;;;;;;;;;;4991834;28;20034;-65
2022/05/27 06:02:52;;;;;;;1.73;1.35;;;;;;;;;;4991856;28;20103;-64
2022/05/27 06:05:20;;;;;;;3.17;1.40;;;;;;;;;;4993557;28;20045;-53
2022/05/27 06:07:48;;;;;;;2.22;1.40;;;;;;;;;;4993893;28;20125;-51
2022/05/27 06:10:16;;;;;;;10.85;1.50;;;;;;;;;;4993528;28;20041;-52
2022/05/27 06:12:44;;;;;;;3.40;1.40;;;;;;;;;;4992256;28;20053;-50
2022/05/27 06:15:20;;;;;;;1.98;1.40;;;;;;;;;;4993562;28;20052;-56
2022/05/27 06:17:48;;;;;;;6.45;1.50;;;;;;;;;;4993436;28;20061;-51
2022/05/27 06:20:16;;;;;;;4.57;1.70;;;;;;;;;;4994934;28;20054;-50
2022/05/27 06:22:43;;;;;;;2.20;1.75;;;;;;;;;;4995295;28;20081;-48
2022/05/27 06:25:11;;;;;;;3.15;1.60;;;;;;;;;;4995487;28;20073;-54
2022/05/27 06:27:39;;;;;;;2.50;1.50;;;;;;;;;;4994269;28;20042;-49
2022/05/27 06:35:44;;;;;;;1.67;1.17;;;;;;;;;;4995193;28;20126;-52
2022/05/27 06:38:12;;;;;;;1.90;1.33;;;;;;;;;;4995195;28;20588;-50
2022/05/27 06:40:39;;;;;;;2.22;1.58;;;;;;;;;;4995005;28;20041;-50
2022/05/27 06:43:06;;;;;;;3.55;1.20;;;;;;;;;;4995010;28;20062;-51
2022/05/27 06:45:34;;;;;;;2.50;1.50;;;;;;;;;;4995094;28;20498;-50
2022/05/27 06:48:01;;;;;;;2.17;1.45;;;;;;;;;;4994836;28;20097;-51
2022/05/27 06:50:31;;;;;;;2.00;1.20;;;;;;;;;;4994836;28;20053;-51
2022/05/27 06:52:59;;;;;;;1.73;1.10;;;;;;;;;;4994921;28;20045;-55
2022/05/27 06:55:26;;;;;;;1.85;1.15;;;;;;;;;;4995085;28;20129;-51
2022/05/27 06:57:53;;;;;;;2.25;1.30;;;;;;;;;;4995017;28;20042;-48
2022/05/27 07:00:21;;;;;;;2.30;1.50;;;;;;;;;;4994555;28;20054;-51
2022/05/27 07:02:48;;;;;;;2.50;1.23;;;;;;;;;;4994679;28;20510;-51
2022/05/27 07:05:15;;;;;;;3.42;1.50;;;;;;;;;;4993587;28;20409;-52
2022/05/27 07:07:45;;;;;;;2.30;1.17;;;;;;;;;;4993228;28;20505;-49
2022/05/27 07:10:12;;;;;;;2.10;1.30;;;;;;;;;;4994669;28;20121;-48
2022/05/27 07:12:39;;;;;;;3.17;1.20;;;;;;;;;;4994369;28;20050;-49
2022/05/27 07:15:08;;;;;;;4.30;1.10;;;;;;;;;;4993115;28;20062;-47
2022/05/27 07:17:35;;;;;;;2.28;1.15;;;;;;;;;;4994547;28;20125;-50
2022/05/27 07:20:03;;;;;;;1.98;0.93;;;;;;;;;;4993990;28;20054;-47
2022/05/27 07:22:30;;;;;;;3.58;1.40;;;;;;;;;;4994489;28;20540;-52
2022/05/27 07:24:58;;;;;;;2.28;1.25;;;;;;;;;;4994295;28;20069;-49
2022/05/27 07:27:26;;;;;;;2.75;0.88;;;;;;;;;;4994463;28;20505;-47
2022/05/27 07:29:53;;;;;;;2.03;1.00;;;;;;;;;;4994129;28;20126;-51
2022/05/27 07:32:20;;;;;;;1.55;1.05;;;;;;;;;;4994428;28;20047;-62
2022/05/27 07:34:50;;;;;;;1.63;1.15;;;;;;;;;;4994188;28;20038;-48
2022/05/27 07:37:18;;;;;;;4.60;1.20;;;;;;;;;;4994023;28;20564;-51
2022/05/27 07:39:45;;;;;;;1.83;0.93;;;;;;;;;;4993848;28;20497;-51
2022/05/27 07:42:12;;;;;;;2.88;0.90;;;;;;;;;;4993890;28;20605;-48
2022/05/27 07:44:40;;;;;;;4.07;0.90;;;;;;;;;;4992854;28;20046;-48
2022/05/27 07:47:07;;;;;;;1.80;1.20;;;;;;;;;;4993822;28;20050;-51
2022/05/27 07:49:35;;;;;;;1.85;1.00;;;;;;;;;;4993631;28;20509;-53
2022/05/27 07:52:04;;;;;;;1.35;0.80;;;;;;;;;;4993677;28;20042;-49
2022/05/27 07:54:32;;;;;;;1.98;1.00;;;;;;;;;;4993649;28;20044;-62
2022/05/27 07:57:00;;;;;;;2.05;0.98;;;;;;;;;;4993710;28;20118;-64
2022/05/27 07:59:28;;;;;;;1.35;1.00;;;;;;;;;;4993569;28;20449;-51
2022/05/27 08:01:55;;;;;;;1.27;0.75;;;;;;;;;;4993830;28;20046;-50
2022/05/27 08:04:23;;;;;;;1.60;0.80;;;;;;;;;;4993813;28;20048;-52
2022/05/27 08:06:51;;;;;;;1.05;0.73;;;;;;;;;;4993539;28;20050;-55
2022/05/27 08:09:19;;;;;;;1.98;1.02;;;;;;;;;;4993532;28;20046;-47
2022/05/27 08:11:46;;;;;;;1.95;0.80;;;;;;;;;;4993562;28;20429;-52
2022/05/27 08:14:13;;;;;;;1.90;1.00;;;;;;;;;;4993334;28;20096;-48
2022/05/27 08:16:42;;;;;;;1.52;0.80;;;;;;;;;;4993298;28;20486;-54
2022/05/27 08:19:10;;;;;;;1.30;0.68;;;;;;;;;;4993188;28;20129;-53
2022/05/27 08:21:37;;;;;;;1.52;0.82;;;;;;;;;;4993259;28;20050;-65
2022/05/27 08:24:07;;;;;;;1.23;0.90;;;;;;;;;;4993308;28;20045;-47
2022/05/27 08:26:37;;;;;;;3.13;0.90;;;;;;;;;;5007718;28;20046;-49
2022/05/27 08:29:06;;;;;;;0.85;0.80;;;;;;;;;;4993037;28;20042;-52
2022/05/27 08:31:34;;;;;;;1.83;1.10;;;;;;;;;;4992928;28;20050;-51
2022/05/27 08:39:38;;;;;;;1.50;0.90;;;;;;;;;;4992719;28;20550;-49
2022/05/27 08:42:17;;;;;;;2.58;0.70;;;;;;;;;;4992737;28;20050;-53
2022/05/27 08:44:49;;;;;;;2.00;0.80;;;;;;;;;;4992782;28;20042;-48
2022/05/27 08:47:24;;;;;;;1.48;0.70;;;;;;;;;;4992813;28;20046;-50
2022/05/27 08:50:09;;;;;;;3.78;1.00;;;;;;;;;;4992869;28;20050;-53
2022/05/27 08:52:50;;;;;;;1.85;0.70;;;;;;;;;;4992663;28;20035;-48
2022/05/27 09:01:27;;;;;;;4.13;0.90;;;;;;;;;;4992804;28;20045;-51
2022/05/27 09:04:12;;;;;;;2.72;0.75;;;;;;;;;;4992870;28;20042;-63
2022/05/27 09:06:47;;;;;;;1.35;1.00;;;;;;;;;;4992401;28;20129;-60
2022/05/27 09:09:21;;;;;;;1.90;0.90;;;;;;;;;;4992392;28;20050;-49
2022/05/27 09:12:24;;;;;;;1.10;0.70;;;;;;;;;;4992425;28;20125;-49
2022/05/27 09:15:37;;;;;;;2.90;0.80;;;;;;;;;;4992404;28;20386;-48
2022/05/27 09:18:19;;;;;;;1.30;0.90;;;;;;;;;;4992014;28;20050;-51
2022/05/27 09:21:06;;;;;;;1.42;0.98;;;;;;;;;;4992013;28;20054;-51
2022/05/27 09:23:52;;;;;;;1.58;0.88;;;;;;;;;;4992336;28;20533;-46
2022/05/27 09:26:31;;;;;;;2.70;0.88;;;;;;;;;;4981952;28;20050;-50
2022/05/27 09:29:30;;;;;;;1.33;0.75;;;;;;;;;;4974465;28;20039;-54
2022/05/27 09:32:30;;;;;;;2.63;1.00;;;;;;;;;;4992312;28;20121;-49
2022/05/27 09:35:06;;;;;;;3.05;0.77;;;;;;;;;;4992258;28;20043;-48
2022/05/27 09:37:58;;;;;;;1.30;0.70;;;;;;;;;;4991739;28;20065;-51
2022/05/27 09:40:35;;;;;;;1.67;0.88;;;;;;;;;;4992032;28;20126;-51
2022/05/27 09:43:07;;;;;;;2.28;0.93;;;;;;;;;;4991847;28;20165;-51
2022/05/27 09:45:36;;;;;;;2.17;1.00;;;;;;;;;;4991931;28;20038;-48
2022/05/27 09:48:07;;;;;;;1.33;0.70;;;;;;;;;;4992019;28;20046;-57
2022/05/27 09:50:46;;;;;;;0.80;0.70;;;;;;;;;;4992024;28;20442;-49
2022/05/27 09:53:25;;;;;;;4.60;0.60;;;;;;;;;;4991797;28;20754;-50
2022/05/27 09:56:02;;;;;;;2.75;0.90;;;;;;;;;;4992055;28;20044;-48
2022/05/27 09:58:33;;;;;;;1.05;0.80;;;;;;;;;;4991750;28;20039;-51
2022/05/27 10:01:19;;;;;;;1.85;0.82;;;;;;;;;;4991691;28;20038;-49
2022/05/27 10:03:57;;;;;;;2.85;0.80;;;;;;;;;;4991558;28;20046;-50
2022/05/27 10:06:27;;;;;;;2.45;1.13;;;;;;;;;;4992145;28;20042;-52
2022/05/27 10:08:57;;;;;;;1.85;0.80;;;;;;;;;;4991874;28;20417;-49
2022/05/27 10:11:30;;;;;;;2.92;0.80;;;;;;;;;;4991912;28;20043;-50
2022/05/27 10:14:24;;;;;;;0.77;0.60;;;;;;;;;;4991525;28;20046;-49
2022/05/27 10:17:10;;;;;;;1.35;0.98;;;;;;;;;;4991573;28;20055;-49
2022/05/27 10:19:47;;;;;;;1.80;1.17;;;;;;;;;;4991500;28;20096;-50
2022/05/27 10:22:25;;;;;;;1.77;0.83;;;;;;;;;;4991391;28;20054;-52
2022/05/27 10:25:06;;;;;;;0.90;0.70;;;;;;;;;;4991613;28;20287;-52
2022/05/27 10:27:37;;;;;;;1.30;0.77;;;;;;;;;;4991661;28;20046;-49
2022/05/27 10:30:24;;;;;;;1.75;0.73;;;;;;;;;;4991190;28;20077;-50
2022/05/27 10:32:52;;;;;;;1.83;0.73;;;;;;;;;;4991524;28;20035;-50
2022/05/27 10:35:29;;;;;;;0.85;0.70;;;;;;;;;;4991506;28;20053;-52
2022/05/27 10:38:18;;;;;;;1.75;0.80;;;;;;;;;;4991800;28;20047;-51
2022/05/27 10:40:57;;;;;;;1.15;0.70;;;;;;;;;;4991449;28;20044;-52
2022/05/27 10:43:46;;;;;;;2.60;0.90;;;;;;;;;;4991427;28;20058;-48
2022/05/27 10:46:18;;;;;;;1.73;0.80;;;;;;;;;;4991461;28;20038;-60
2022/05/27 10:49:01;;;;;;;0.90;0.70;;;;;;;;;;4991366;28;20038;-48
2022/05/27 10:51:39;;;;;;;0.60;0.50;;;;;;;;;;4994975;28;20121;-50
2022/05/27 10:54:27;;;;;;;0.80;0.52;;;;;;;;;;4994877;28;20047;-51
2022/05/27 11:03:39;;;;;;;2.40;0.75;;;;;;;;;;4994660;28;20081;-47
2022/05/27 11:06:37;;;;;;;0.98;0.60;;;;;;;;;;4994648;28;20042;-48
2022/05/27 11:09:43;;;;;;;2.63;0.80;;;;;;;;;;4994734;28;20038;-49
2022/05/27 11:12:27;;;;;;;1.27;0.73;;;;;;;;;;4994704;28;20043;-52
2022/05/27 11:15:15;;;;;;;1.75;0.85;;;;;;;;;;4994704;28;20413;-52
2022/05/27 11:18:18;;;;;;;1.27;0.75;;;;;;;;;;4994551;28;20088;-49
2022/05/27 11:20:58;;;;;;;2.45;1.00;;;;;;;;;;4972295;28;20051;-49
2022/05/27 11:23:37;;;;;;;2.25;0.80;;;;;;;;;;4992027;28;20086;-62
2022/05/27 11:26:27;;;;;;;2.35;0.80;;;;;;;;;;5009321;28;20073;-52
2022/05/27 11:28:57;;;;;;;2.05;0.80;;;;;;;;;;4994552;28;20051;-49
2022/05/27 11:31:42;;;;;;;4.82;1.15;;;;;;;;;;4994088;28;20428;-51
2022/05/27 11:34:27;;;;;;;2.63;0.82;;;;;;;;;;4994284;28;20050;-49
2022/05/27 11:37:19;;;;;;;2.08;1.10;;;;;;;;;;4993971;28;20054;-53
2022/05/27 11:39:51;;;;;;;4.30;0.88;;;;;;;;;;4994041;28;20077;-49
2022/05/27 11:43:00;;;;;;;1.65;0.98;;;;;;;;;;4993944;28;20581;-50
2022/05/27 11:45:29;;;;;;;2.72;0.80;;;;;;;;;;4994021;28;20434;-49
2022/05/27 11:48:03;;;;;;;1.83;0.70;;;;;;;;;;4994052;28;20053;-51
2022/05/27 11:50:49;;;;;;;1.23;0.80;;;;;;;;;;5008669;28;20043;-48
2022/05/27 11:53:45;;;;;;;2.75;0.98;;;;;;;;;;4993777;28;20042;-50
2022/05/27 11:56:12;;;;;;;1.08;0.80;;;;;;;;;;4993467;28;20051;-52
2022/05/27 11:59:07;;;;;;;2.75;1.15;;;;;;;;;;4993631;28;20088;-48
2022/05/27 12:01:44;;;;;;;1.40;0.75;;;;;;;;;;4993085;28;20097;-52
2022/05/27 12:04:52;;;;;;;2.45;0.85;;;;;;;;;;4993304;28;20583;-50
2022/05/27 12:07:34;;;;;;;2.20;0.77;;;;;;;;;;4993759;28;20048;-50
2022/05/27 12:10:24;;;;;;;2.20;1.10;;;;;;;;;;4993789;28;20042;-49
2022/05/27 12:13:05;;;;;;;4.40;0.80;;;;;;;;;;4993362;28;20089;-52
2022/05/27 12:15:38;;;;;;;3.13;0.60;;;;;;;;;;4993397;28;20125;-48
2022/05/27 12:18:16;;;;;;;1.33;0.70;;;;;;;;;;4993369;28;20061;-53
2022/05/27 12:20:44;;;;;;;1.30;0.70;;;;;;;;;;4992601;28;20073;-52
2022/05/27 12:23:12;;;;;;;1.13;0.70;;;;;;;;;;4993079;28;20050;-48
2022/05/27 12:25:50;;;;;;;0.93;0.65;;;;;;;;;;4993167;28;20109;-54
2022/05/27 12:28:21;;;;;;;1.00;0.80;;;;;;;;;;4993222;28;20038;-50
2022/05/27 12:30:51;;;;;;;14.82;8.20;;;;;;;;;;4992919;28;20871;-46
2022/05/27 12:33:23;;;;;;;2.22;0.70;;;;;;;;;;4993170;28;20094;-52
2022/05/27 12:35:59;;;;;;;2.97;0.90;;;;;;;;;;4992635;28;20042;-52
2022/05/27 12:38:29;;;;;;;1.58;0.80;;;;;;;;;;4991632;28;20045;-50
2022/05/27 12:41:03;;;;;;;2.15;1.05;;;;;;;;;;4993085;28;20057;-47
2022/05/27 12:43:39;;;;;;;1.00;0.68;;;;;;;;;;4992781;28;20510;-50
2022/05/27 12:46:21;;;;;;;7.40;2.90;;;;;;;;;;4992741;28;20034;-48
2022/05/27 12:48:49;;;;;;;2.08;1.08;;;;;;;;;;4992687;28;20042;-47
2022/05/27 12:51:16;;;;;;;0.90;0.70;;;;;;;;;;4992955;28;20568;-47
2022/05/27 12:53:57;;;;;;;2.70;0.73;;;;;;;;;;4992990;28;20034;-48
2022/05/27 13:02:22;;;;;;;39.50;21.35;;;;;;;;;;4992736;28;20501;-52
2022/05/27 13:04:56;;;;;;;17.55;10.60;;;;;;;;;;4992625;28;20045;-51
2022/05/27 13:07:29;;;;;;;1.65;0.98;;;;;;;;;;4992300;28;20042;-51
2022/05/27 13:10:16;;;;;;;;;;;;;;;;;;4993120;28;20043;-52
2022/05/27 13:12:53;;;;;;;0.88;0.55;;;;;;;;;;4991797;28;19928;-49
2022/05/27 13:15:33;;;;;;;1.67;0.82;;;;;;;;;;4991974;28;20072;-59
2022/05/27 13:18:31;;;;;;;1.13;0.68;;;;;;;;;;4991288;28;20050;-50
2022/05/27 13:21:04;;;;;;;0.60;0.57;;;;;;;;;;4992579;28;20051;-50
2022/05/27 13:23:32;;;;;;;1.48;0.65;;;;;;;;;;4992360;28;20105;-50
2022/05/27 13:26:30;;;;;;;1.67;0.60;;;;;;;;;;4992178;28;20061;-51
2022/05/27 13:28:58;;;;;;;1.10;0.60;;;;;;;;;;4991008;28;20494;-48
2022/05/27 13:31:42;;;;;;;2.80;1.90;;;;;;;;;;4992330;28;20126;-50
2022/05/27 13:34:14;;;;;;;7.30;4.40;;;;;;;;;;4991914;28;20043;-51
2022/05/27 13:37:02;;;;;;;1.98;0.65;;;;;;;;;;4992181;28;20406;-51
2022/05/27 13:39:36;;;;;;;1.90;0.80;;;;;;;;;;4992190;28;20042;-50
2022/05/27 13:42:08;;;;;;;0.70;0.60;;;;;;;;;;4991991;28;20198;-53
2022/05/27 13:44:40;;;;;;;1.00;0.70;;;;;;;;;;4991839;28;20125;-53
2022/05/27 13:47:14;;;;;;;2.90;0.70;;;;;;;;;;4991987;28;20043;-53
2022/05/27 13:49:43;;;;;;;1.48;0.85;;;;;;;;;;4992170;28;20034;-51
2022/05/27 13:52:32;;;;;;;0.82;0.60;;;;;;;;;;4991628;28;20469;-51
2022/05/27 13:55:11;;;;;;;1.10;0.70;;;;;;;;;;4991949;28;20048;-50
2022/05/27 13:57:43;;;;;;;4.40;0.90;;;;;;;;;;4991925;28;20410;-53
2022/05/27 14:00:13;;;;;;;3.42;0.82;;;;;;;;;;4992000;28;20430;-54
2022/05/27 14:02:48;;;;;;;1.40;0.70;;;;;;;;;;4991683;28;20514;-56
2022/05/27 14:05:23;;;;;;;2.83;0.90;;;;;;;;;;4991684;28;20042;-53
2022/05/27 14:07:52;;;;;;;2.00;1.10;;;;;;;;;;4991917;28;20236;-53
2022/05/27 14:10:28;;;;;;;1.33;0.77;;;;;;;;;;4991592;28;20045;-50
2022/05/27 14:12:57;;;;;;;4.13;0.90;;;;;;;;;;4992298;28;20042;-54
2022/05/27 14:15:28;;;;;;;1.13;0.60;;;;;;;;;;4991800;28;20039;-54
2022/05/27 14:17:56;;;;;;;3.38;0.85;;;;;;;;;;4991871;28;20524;-53
2022/05/27 14:23:25;;;;;;;3.95;0.75;;;;;;;;;;4991530;28;20043;-49
2022/05/27 14:26:01;;;;;;;0.85;0.70;;;;;;;;;;4994413;28;20038;-52
2022/05/27 14:28:38;;;;;;;1.17;0.80;;;;;;;;;;4995243;28;20038;-51
2022/05/27 14:31:16;;;;;;;0.80;0.60;;;;;;;;;;4995249;28;20045;-52
2022/05/27 14:33:57;;;;;;;1.10;0.70;;;;;;;;;;4995471;28;20444;-51
2022/05/27 14:36:27;;;;;;;2.17;0.80;;;;;;;;;;4995169;28;20042;-53
2022/05/27 14:38:58;;;;;;;0.98;0.70;;;;;;;;;;4995119;28;20046;-52
2022/05/27 14:41:30;;;;;;;178.35;57.42;;;;;;;;;;4995539;28;20129;-65
2022/05/27 14:44:01;;;;;;;19.47;8.60;;;;;;;;;;4995293;28;20057;-54
2022/05/27 14:46:39;;;;;;;4.30;1.50;;;;;;;;;;4995134;28;20057;-50
2022/05/27 14:49:26;;;;;;;2.10;0.75;;;;;;;;;;4994932;28;20046;-53
2022/05/27 14:51:54;;;;;;;1.27;0.80;;;;;;;;;;4995030;28;20070;-53
2022/05/27 14:54:26;;;;;;;2.22;0.85;;;;;;;;;;4994791;28;20038;-53
2022/05/27 14:57:28;;;;;;;2.20;0.80;;;;;;;;;;4994959;28;20046;-54
2022/05/27 14:59:58;;;;;;;1.42;0.75;;;;;;;;;;4992423;28;20057;-51
2022/05/27 15:02:41;;;;;;;1.40;0.68;;;;;;;;;;4995064;28;20422;-52
2022/05/27 15:05:12;;;;;;;1.02;0.80;;;;;;;;;;4994575;28;20197;-53
2022/05/27 15:07:46;;;;;;;1.42;0.80;;;;;;;;;;4994784;28;20125;-54
2022/05/27 15:10:35;;;;;;;0.75;0.60;;;;;;;;;;4994598;28;20089;-54
2022/05/27 15:13:29;;;;;;;2.85;0.85;;;;;;;;;;4994656;28;20044;-53
2022/05/27 15:16:27;;;;;;;1.27;0.77;;;;;;;;;;4994707;28;20042;-53
2022/05/27 15:18:55;;;;;;;1.15;0.70;;;;;;;;;;4994486;28;20038;-52
2022/05/27 15:21:36;;;;;;;2.78;1.80;;;;;;;;;;4999929;28;20406;-50
2022/05/27 15:24:29;;;;;;;12.23;5.90;;;;;;;;;;4994261;28;20073;-52
2022/05/27 15:35:47;;;;;;;2.40;1.05;;;;;;;;;;4994301;28;20038;-49
2022/05/27 15:38:29;;;;;;;1.67;0.90;;;;;;;;;;4993671;28;20565;-49
2022/05/27 15:41:02;;;;;;;1.75;1.00;;;;;;;;;;4994286;28;20053;-53
2022/05/27 15:43:36;;;;;;;1.30;0.98;;;;;;;;;;4993945;28;20042;-48
2022/05/27 15:46:06;;;;;;;2.45;1.23;;;;;;;;;;4994011;28;20050;-53
2022/05/27 15:48:34;;;;;;;1.75;1.15;;;;;;;;;;4993956;28;20039;-54
2022/05/27 15:51:04;;;;;;;1.98;1.20;;;;;;;;;;4994109;28;20072;-51
2022/05/27 15:53:39;;;;;;;2.03;1.10;;;;;;;;;;4992734;28;20422;-53
2022/05/27 15:56:07;;;;;;;2.08;1.42;;;;;;;;;;4993718;28;20049;-51
2022/05/27 15:58:36;;;;;;;2.25;1.10;;;;;;;;;;4993672;28;20446;-51
2022/05/27 16:01:05;;;;;;;2.10;1.48;;;;;;;;;;4993931;28;20042;-50
2022/05/27 16:03:32;;;;;;;1.95;1.10;;;;;;;;;;5008619;28;20522;-51
2022/05/27 16:06:00;;;;;;;1.40;0.90;;;;;;;;;;4993918;28;20030;-49
2022/05/27 16:08:28;;;;;;;2.15;1.00;;;;;;;;;;4993731;28;20089;-50
2022/05/27 16:10:56;;;;;;;1.58;0.90;;;;;;;;;;4993653;28;20101;-52
2022/05/27 16:13:23;;;;;;;1.20;0.85;;;;;;;;;;4993603;28;20056;-51
2022/05/27 16:18:37;;;;;;;26.70;13.10;;;;;;;;;;4993156;28;20050;-50